createdAt,value
2022-08-16T00:01:06.474Z,61.80
2022-08-16T00:04:51.161Z,61.70
2022-08-16T00:08:37.043Z,61.70
2022-08-16T00:12:19.572Z,61.80
2022-08-16T00:17:05.923Z,61.80
2022-08-16T00:20:12.469Z,61.90
2022-08-16T00:23:54.904Z,62.10
2022-08-16T00:27:37.438Z,62.20
2022-08-16T00:31:24.090Z,62.20
2022-08-16T00:35:15.169Z,62.40
2022-08-16T00:38:58.038Z,62.60
2022-08-16T00:42:40.369Z,62.80
2022-08-16T00:46:35.549Z,63.00
2022-08-16T00:50:36.464Z,65.20
2022-08-16T00:54:21.725Z,64.30
2022-08-16T00:58:04.862Z,63.20
2022-08-16T01:01:55.842Z,63.40
2022-08-16T01:05:38.782Z,63.50
2022-08-16T01:09:22.842Z,63.60
2022-08-16T01:13:12.449Z,63.80
2022-08-16T01:17:00.116Z,64.50
2022-08-16T01:20:51.456Z,63.90
2022-08-16T01:24:52.830Z,64.70
2022-08-16T01:28:39.011Z,64.60
2022-08-16T01:32:33.414Z,64.10
2022-08-16T01:36:16.698Z,64.20
2022-08-16T01:40:00.221Z,64.20
2022-08-16T01:43:44.791Z,64.60
2022-08-16T01:47:29.311Z,64.90
2022-08-16T01:51:17.060Z,65.10
2022-08-16T01:54:59.822Z,65.70
2022-08-16T01:58:48.113Z,65.60
2022-08-16T02:02:30.614Z,65.80
2022-08-16T02:06:12.784Z,65.80
2022-08-16T02:09:57.257Z,65.90
2022-08-16T02:13:42.110Z,66.10
2022-08-16T02:17:24.512Z,66.00
2022-08-16T02:21:13.282Z,66.20
2022-08-16T02:24:57.857Z,66.30
2022-08-16T02:28:39.908Z,66.30
2022-08-16T02:32:51.314Z,66.30
2022-08-16T02:36:42.426Z,66.40
2022-08-16T02:40:33.071Z,66.60
2022-08-16T02:44:17.176Z,66.90
2022-08-16T02:48:30.014Z,67.20
2022-08-16T02:52:04.737Z,67.50
2022-08-16T02:55:52.584Z,67.70
2022-08-16T02:59:39.786Z,68.10
2022-08-16T03:03:25.119Z,68.10
2022-08-16T03:07:07.649Z,68.20
2022-08-16T03:10:51.351Z,68.50
2022-08-16T03:14:35.933Z,68.80
2022-08-16T03:18:34.742Z,69.00
2022-08-16T03:22:28.884Z,69.10
2022-08-16T03:26:12.296Z,69.20
2022-08-16T03:29:58.160Z,69.40
2022-08-16T03:33:40.453Z,69.90
2022-08-16T03:37:23.583Z,69.70
2022-08-16T03:41:14.377Z,69.90
2022-08-16T03:45:08.471Z,70.10
2022-08-16T03:48:51.362Z,70.10
2022-08-16T03:52:34.280Z,70.00
2022-08-16T03:56:19.511Z,70.10
2022-08-16T04:00:20.500Z,70.10
2022-08-16T04:04:17.655Z,70.70
2022-08-16T04:08:23.339Z,70.20
2022-08-16T04:12:11.246Z,70.20
2022-08-16T04:16:27.870Z,70.30
2022-08-16T04:20:23.581Z,70.40
2022-08-16T04:24:13.893Z,70.30
2022-08-16T04:27:57.517Z,70.40
2022-08-16T04:32:00.198Z,70.60
2022-08-16T04:35:44.702Z,70.70
2022-08-16T04:39:45.725Z,70.90
2022-08-16T04:43:29.422Z,71.90
2022-08-16T04:47:21.776Z,71.10
2022-08-16T04:51:11.704Z,71.20
2022-08-16T04:54:54.769Z,71.30
2022-08-16T04:58:46.062Z,71.40
2022-08-16T05:02:42.477Z,71.50
2022-08-16T05:06:45.082Z,71.50
2022-08-16T05:10:30.311Z,71.50
2022-08-16T05:14:20.223Z,71.70
2022-08-16T05:18:16.680Z,71.50
2022-08-16T05:22:03.079Z,71.60
2022-08-16T05:25:48.442Z,71.70
2022-08-16T05:30:00.142Z,71.80
2022-08-16T05:33:33.012Z,72.40
2022-08-16T05:37:16.889Z,71.30
2022-08-16T05:41:00.475Z,71.70
2022-08-16T05:44:44.840Z,71.90
2022-08-16T05:48:32.113Z,72.00
2022-08-16T05:52:17.383Z,72.10
2022-08-16T05:56:03.478Z,72.30
2022-08-16T06:00:00.199Z,72.40
2022-08-16T06:03:43.341Z,72.60
2022-08-16T06:07:26.628Z,72.60
2022-08-16T06:11:11.359Z,72.60
2022-08-16T06:15:07.576Z,72.70
2022-08-16T06:18:50.525Z,72.80
2022-08-16T06:22:39.485Z,72.80
2022-08-16T06:26:22.997Z,72.80
2022-08-16T06:30:08.411Z,73.00
2022-08-16T06:33:51.749Z,73.10
2022-08-16T06:37:36.981Z,73.00
2022-08-16T06:41:20.008Z,73.10
2022-08-16T06:45:02.801Z,73.50
2022-08-16T06:48:49.595Z,72.70
2022-08-16T06:53:08.658Z,72.90
2022-08-16T06:56:38.945Z,73.10
2022-08-16T07:00:24.740Z,73.30
2022-08-16T07:04:11.849Z,73.50
2022-08-16T07:07:55.066Z,73.60
2022-08-16T07:11:47.271Z,73.60
2022-08-16T07:15:30.787Z,73.70
2022-08-16T07:19:13.186Z,73.70
2022-08-16T07:22:59.053Z,73.90
2022-08-16T07:26:41.857Z,73.90
2022-08-16T07:30:46.585Z,74.10
2022-08-16T07:34:35.639Z,75.50
2022-08-16T07:38:20.139Z,74.30
2022-08-16T07:42:20.182Z,74.40
2022-08-16T07:46:37.907Z,74.60
2022-08-16T07:50:56.041Z,74.70
2022-08-16T07:54:31.968Z,74.90
2022-08-16T07:58:18.522Z,75.00
2022-08-16T08:02:20.631Z,75.00
2022-08-16T08:06:04.454Z,75.00
2022-08-16T08:09:53.076Z,75.10
2022-08-16T08:13:42.665Z,75.20
2022-08-16T08:17:41.963Z,75.10
2022-08-16T08:21:27.399Z,74.80
2022-08-16T08:25:53.827Z,74.70
2022-08-16T08:29:36.759Z,74.50
2022-08-16T08:33:20.394Z,74.40
2022-08-16T08:37:07.898Z,74.30
2022-08-16T08:40:50.294Z,74.20
2022-08-16T08:44:34.296Z,74.10
2022-08-16T08:48:33.899Z,74.10
2022-08-16T08:52:35.088Z,74.00
2022-08-16T08:56:23.770Z,74.00
2022-08-16T09:00:13.645Z,73.90
2022-08-16T09:03:56.152Z,73.80
2022-08-16T09:08:00.197Z,73.50
2022-08-16T09:11:44.107Z,73.10
2022-08-16T09:15:33.029Z,72.70
2022-08-16T09:19:15.485Z,72.50
2022-08-16T09:22:59.449Z,72.30
2022-08-16T09:26:45.774Z,72.10
2022-08-16T09:30:33.566Z,71.80
2022-08-16T09:34:19.700Z,71.60
2022-08-16T09:38:03.604Z,71.60
2022-08-16T09:41:53.960Z,71.50
2022-08-16T09:45:39.413Z,71.40
2022-08-16T09:49:21.723Z,71.10
2022-08-16T09:53:07.377Z,71.10
2022-08-16T09:56:58.093Z,71.30
2022-08-16T10:00:44.028Z,71.40
2022-08-16T10:04:33.173Z,71.60
2022-08-16T10:08:25.873Z,71.50
2022-08-16T10:12:28.213Z,71.40
2022-08-16T10:19:57.295Z,71.40
2022-08-16T10:23:39.475Z,71.20
2022-08-16T10:27:26.789Z,71.10
2022-08-16T10:31:16.777Z,71.00
2022-08-16T10:35:06.083Z,70.90
2022-08-16T10:38:48.383Z,70.90
2022-08-16T10:42:35.230Z,71.00
2022-08-16T10:46:39.600Z,71.10
2022-08-16T10:50:21.614Z,71.00
2022-08-16T10:54:05.161Z,70.90
2022-08-16T10:57:49.220Z,70.90
2022-08-16T11:05:59.719Z,71.10
2022-08-16T11:09:46.263Z,70.90
2022-08-16T11:17:44.951Z,70.40
2022-08-16T11:21:28.623Z,70.40
2022-08-16T11:26:07.325Z,70.60
2022-08-16T11:29:19.341Z,70.60
2022-08-16T11:38:06.169Z,69.90
2022-08-16T11:41:53.055Z,68.70
2022-08-16T11:45:42.580Z,68.70
2022-08-16T11:50:04.215Z,68.30
2022-08-16T11:53:46.858Z,68.00
2022-08-16T11:57:37.039Z,67.50
2022-08-16T12:01:29.862Z,66.80
2022-08-16T12:09:43.599Z,66.10
2022-08-16T12:13:32.211Z,63.90
2022-08-16T12:17:38.710Z,64.70
2022-08-16T12:25:30.688Z,63.40
2022-08-16T12:29:21.763Z,62.60
2022-08-16T12:33:32.631Z,61.90
2022-08-16T12:37:29.173Z,59.00
2022-08-16T12:45:33.339Z,52.20
2022-08-16T12:53:17.640Z,48.30
2022-08-16T12:57:15.119Z,45.90
2022-08-16T13:01:14.774Z,43.50
2022-08-16T13:04:59.898Z,41.00
2022-08-16T13:08:43.367Z,41.20
2022-08-16T13:12:29.541Z,41.60
2022-08-16T13:16:20.013Z,41.50
2022-08-16T13:20:07.670Z,41.80
2022-08-16T13:23:55.303Z,42.60
2022-08-16T13:28:01.590Z,42.60
2022-08-16T13:31:40.290Z,43.10
2022-08-16T13:35:25.363Z,43.80
2022-08-16T13:39:07.673Z,44.30
2022-08-16T13:42:52.439Z,45.90
2022-08-16T13:46:41.865Z,50.60
2022-08-16T13:50:30.931Z,57.70
2022-08-16T13:54:31.397Z,60.90
2022-08-16T13:58:34.943Z,62.70
2022-08-16T14:02:16.363Z,64.30
2022-08-16T14:05:59.188Z,65.40
2022-08-16T14:09:43.757Z,66.40
2022-08-16T14:13:25.878Z,67.60
2022-08-16T14:17:09.757Z,68.70
2022-08-16T14:20:52.453Z,69.70
2022-08-16T14:24:35.836Z,70.70
2022-08-16T14:28:20.448Z,71.40
2022-08-16T14:32:13.245Z,72.20
2022-08-16T14:36:25.019Z,73.80
2022-08-16T14:40:14.641Z,73.40
2022-08-16T14:43:57.762Z,74.20
2022-08-16T14:47:40.240Z,74.80
2022-08-16T14:51:23.323Z,75.40
2022-08-16T14:55:11.876Z,75.70
2022-08-16T14:58:55.139Z,75.80
2022-08-16T15:02:38.946Z,76.00
2022-08-16T15:06:22.406Z,76.00
2022-08-16T15:10:21.574Z,76.10
2022-08-16T15:14:09.179Z,76.70
2022-08-16T15:17:54.052Z,77.20
2022-08-16T15:21:37.308Z,78.00
2022-08-16T15:25:30.912Z,78.20
2022-08-16T15:29:13.155Z,79.80
2022-08-16T15:33:05.602Z,78.60
2022-08-16T15:36:47.918Z,79.50
2022-08-16T15:40:35.159Z,79.50
2022-08-16T15:44:22.604Z,79.90
2022-08-16T15:48:05.707Z,80.30
2022-08-16T15:51:47.850Z,80.50
2022-08-16T15:55:34.982Z,80.80
2022-08-16T15:59:17.636Z,81.10
2022-08-16T16:03:12.741Z,81.20
2022-08-16T16:06:56.823Z,82.90
2022-08-16T16:10:44.046Z,81.80
2022-08-16T16:14:37.869Z,82.10
2022-08-16T16:18:21.330Z,82.20
2022-08-16T16:22:03.951Z,82.30
2022-08-16T16:25:48.153Z,82.60
2022-08-16T16:29:40.184Z,82.90
2022-08-16T16:33:26.182Z,82.90
2022-08-16T16:37:10.774Z,83.00
2022-08-16T16:40:54.345Z,83.10
2022-08-16T16:44:37.373Z,83.10
2022-08-16T16:48:19.547Z,83.20
2022-08-16T16:52:06.891Z,83.30
2022-08-16T16:55:52.080Z,83.30
2022-08-16T16:59:34.471Z,83.40
2022-08-16T17:03:17.731Z,83.50
2022-08-16T17:07:01.574Z,83.50
2022-08-16T17:10:46.489Z,83.70
2022-08-16T17:14:33.523Z,83.70
2022-08-16T17:22:21.215Z,83.90
2022-08-16T17:26:03.321Z,83.80
2022-08-16T17:29:54.446Z,83.80
2022-08-16T17:33:54.134Z,83.90
2022-08-16T17:37:50.613Z,83.90
2022-08-16T17:39:28.317Z,83.80
2022-08-16T17:41:35.132Z,84.00
2022-08-16T17:45:18.692Z,84.30
2022-08-16T17:49:00.812Z,84.40
2022-08-16T17:52:49.203Z,84.50
2022-08-16T17:56:32.145Z,84.60
2022-08-16T18:00:19.774Z,84.70
2022-08-16T18:04:08.646Z,84.70
2022-08-16T18:07:53.011Z,84.70
2022-08-16T18:11:43.035Z,84.70
2022-08-16T18:15:26.826Z,84.80
2022-08-16T18:19:10.571Z,84.90
2022-08-16T18:22:52.728Z,85.00
2022-08-16T18:26:35.251Z,85.10
2022-08-16T18:30:17.991Z,85.00
2022-08-16T18:34:01.464Z,85.00
2022-08-16T18:37:43.608Z,85.10
2022-08-16T18:41:27.264Z,85.20
2022-08-16T18:45:10.233Z,85.30
2022-08-16T18:48:52.345Z,85.30
2022-08-16T18:52:34.512Z,85.30
2022-08-16T18:56:16.669Z,85.40
2022-08-16T18:59:58.876Z,85.40
2022-08-16T19:03:41.096Z,85.50
2022-08-16T19:07:31.074Z,85.50
2022-08-16T19:11:19.207Z,85.60
2022-08-16T19:15:01.647Z,85.70
2022-08-16T19:18:43.760Z,85.70
2022-08-16T19:22:59.617Z,85.70
2022-08-16T19:26:35.034Z,85.90
2022-08-16T19:30:19.736Z,85.80
2022-08-16T19:34:04.021Z,85.90
2022-08-16T19:37:46.964Z,85.90
2022-08-16T19:41:30.064Z,86.00
2022-08-16T19:45:20.241Z,86.00
2022-08-16T19:49:02.841Z,86.10
2022-08-16T19:52:45.605Z,86.20
2022-08-16T19:56:27.966Z,86.20
2022-08-16T20:00:14.236Z,86.10
2022-08-16T20:03:56.962Z,86.10
2022-08-16T20:07:39.731Z,86.00
2022-08-16T20:11:23.082Z,85.90
2022-08-16T20:15:07.393Z,85.90
2022-08-16T20:18:49.593Z,86.00
2022-08-16T20:23:02.577Z,86.10
2022-08-16T20:26:36.003Z,86.10
2022-08-16T20:30:18.500Z,86.10
2022-08-16T20:34:00.647Z,86.10
2022-08-16T20:37:43.425Z,86.20
2022-08-16T20:41:27.206Z,86.20
2022-08-16T20:45:11.563Z,86.30
2022-08-16T20:48:54.661Z,86.40
2022-08-16T20:52:38.082Z,86.40
2022-08-16T20:56:20.243Z,86.40
2022-08-16T21:00:02.713Z,86.30
2022-08-16T21:03:45.935Z,86.30
2022-08-16T21:07:28.070Z,86.30
2022-08-16T21:11:10.178Z,86.40
2022-08-16T21:14:54.901Z,86.30
2022-08-16T21:18:36.996Z,86.40
2022-08-16T21:22:22.436Z,86.50
2022-08-16T21:26:11.044Z,86.50
2022-08-16T21:29:55.596Z,86.40
2022-08-16T21:33:38.027Z,86.40
2022-08-16T21:37:20.361Z,86.30
2022-08-16T21:41:05.489Z,86.40
2022-08-16T21:44:48.320Z,86.60
2022-08-16T21:48:35.122Z,86.70
2022-08-16T21:52:26.370Z,86.70
2022-08-16T21:56:14.959Z,86.80
2022-08-16T22:00:00.453Z,86.80
2022-08-16T22:03:43.175Z,86.90
2022-08-16T22:07:25.549Z,86.80
2022-08-16T22:11:09.206Z,86.70
2022-08-16T22:14:52.304Z,86.80
2022-08-16T22:18:34.812Z,86.80
2022-08-16T22:22:16.927Z,86.80
2022-08-16T22:25:59.018Z,86.80
2022-08-16T22:29:42.312Z,86.80
2022-08-16T22:33:27.217Z,86.90
2022-08-16T22:37:09.336Z,86.90
2022-08-16T22:40:51.556Z,86.90
2022-08-16T22:44:33.946Z,87.00
2022-08-16T22:48:17.471Z,86.90
2022-08-16T22:52:08.438Z,86.90
2022-08-16T22:55:51.029Z,86.90
2022-08-16T22:59:34.064Z,86.90
2022-08-16T23:03:18.788Z,86.90
2022-08-16T23:07:00.987Z,86.80
2022-08-16T23:10:47.107Z,86.80
2022-08-16T23:14:29.505Z,86.80
2022-08-16T23:18:12.376Z,86.80
2022-08-16T23:21:54.697Z,86.90
2022-08-16T23:25:39.543Z,86.90
2022-08-16T23:29:26.510Z,86.90
2022-08-16T23:33:11.311Z,86.90
2022-08-16T23:36:53.435Z,87.00
2022-08-16T23:40:38.647Z,86.90
2022-08-16T23:44:57.209Z,86.90
2022-08-16T23:48:28.895Z,86.80
2022-08-16T23:52:16.133Z,86.90
2022-08-16T23:56:01.343Z,86.80
2022-08-16T23:59:52.487Z,86.80
